Meteo Giornale » Osservazioni meteo Italia » Milano-Malpensa

ore: 11:50 - Osservazioni Meteo Milano-Malpensa
Lat. 45° 37' N Lon. 8° 44' E Alt. 234 metri s.l.m.

sereno Europe/Rome

11 °C

Sereno

Temp. 24 Ore

-1 °C

15 °C

Ovest/Sud-Ovest

9.3 Km/h

Dew point -1 °C

Umidità 43 %

Visibilità  10 Km

Il sole sorge alle ore 07:30

Il sole tramonta alle ore 16:51

Data e Ora Cielo e Fenomeni T °C DP °C Um. % Pres. hPa Vis. km Vento km/h
Oggi h: 11:50 sereno Sereno 11 -1 43 1021 10 O/SO 9.3
Oggi h: 11:20 sereno Sereno 11 0 46 1021 10 SO 7.4
Oggi h: 10:50 sereno Sereno 11 -2 40 1021 10 N 3.7
Oggi h: 10:20 sereno Sereno 9 -1 49 1021 10 N 5.5
Oggi h: 09:50 sereno Sereno 7 0 60 1021 10 N 7.4
Oggi h: 09:20 sereno Sereno 5 1 75 1021 10 N 5.5
Oggi h: 08:50 sereno Sereno 2 -0 86 1021 10 N 7.4
Oggi h: 08:20 sereno Sereno -0 -3 80 1021 10 N/NE 7.4
Oggi h: 07:50 sereno Sereno 1 -3 74 1020 10 N 3.7
Oggi h: 07:20 sereno Sereno 1 -2 80 1020 10 N 5.5
Oggi h: 06:50 sereno Sereno -0 -3 80 1020 10 N 7.4
Oggi h: 06:20 sereno Sereno 0 -2 86 1020 10 N 11.1
Oggi h: 05:50 sereno Sereno -0 -3 80 1020 10 N/NE 9.3
Oggi h: 05:20 sereno Sereno -1 -3 86 1020 10 N 7.4
Oggi h: 04:50 sereno Sereno -0 -4 74 1019 10 N 3.7
Oggi h: 04:20 sereno Sereno 1 -3 74 1019 10 N 7.4
Oggi h: 03:50 sereno Sereno 0 -2 86 1019 10 N 9.3
Oggi h: 03:20 sereno Sereno 3 -2 69 1019 10 N 11.1
Oggi h: 02:50 sereno Sereno 3 -3 64 1019 10 NE 9.3
Oggi h: 02:20 sereno Sereno 2 -5 59 1019 10 N/NE 9.3
Oggi h: 01:50 sereno Sereno 5 -5 48 1019 10 N 3.7
Oggi h: 01:20 sereno Sereno 2 -5 59 1018 10 N 5.5
Oggi h: 00:50 sereno Sereno 1 -4 69 1018 10 N/NE 7.4
Oggi h: 00:20 sereno Sereno 3 -4 59 1018 10 N 9.3
Ieri h: 23:50 sereno Sereno 2 -4 64 1017 10 N/NE 13
Ieri h: 23:20 sereno Sereno 4 -1 69 1017 10 N 7.4
Ieri h: 22:50 sereno Sereno 8 -1 52 1017 10 N 5.5
Ieri h: 22:20 sereno Sereno 7 1 65 1017 10 O/SO 11.1
Ieri h: 21:50 sereno Sereno 8 -8 31 1016 10 N 5.5
Ieri h: 21:20 sereno Sereno 11 -9 23 1015 10 N/NE 16.7
Ieri h: 20:50 sereno Sereno 12 -8 23 1015 10 N/NE 18.5
Ieri h: 20:20 sereno Sereno 9 -6 33 1015 10 NE 16.7
Ieri h: 19:50 sereno Sereno 7 -1 56 1015 10 E/NE 7.4
Ieri h: 19:20 sereno Sereno 9 4 70 1014 10 E/SE 7.4
Ieri h: 18:50 sereno Sereno 8 4 75 1014 10 N 5.5
Ieri h: 18:20 sereno Sereno 7 4 81 1014 10 N 5.5
Ieri h: 17:50 sereno Sereno 9 4 70 1013 10 N 7.4
Ieri h: 17:20 sereno Sereno 12 5 62 1013 10 SO 9.3
Ieri h: 16:50 sereno Sereno 13 5 58 1012 10 N 5.5
Ieri h: 16:20 sereno Sereno 14 5 54 1012 10 O/SO 9.3
Ieri h: 15:50 sereno Sereno 14 4 50 1012 10 O/SO 13
Ieri h: 15:20 sereno Sereno 15 3 44 1012 10 O/SO 9.3
Ieri h: 14:50 sereno Sereno 15 4 47 1012 10 O/SO 13
Ieri h: 14:20 sereno Sereno 15 4 47 1012 10 O/SO 13
Ieri h: 13:50 sereno Sereno 15 2 41 1012 10 O 11.1
Ieri h: 13:20 sereno Sereno 14 2 44 1013 10 O/SO 11.1
Ieri h: 12:50 sereno Sereno 14 2 44 1013 10 N 9.3
Ieri h: 12:20 sereno Sereno 13 2 47 1013 10 O/NO 9.3
Ieri h: 11:50 sereno Sereno 12 3 54 1013 10 N 5.5